createdAt,value
2024-01-20T00:00:49.943Z,0.00
2024-01-20T00:01:48.948Z,0.00
2024-01-20T00:02:49.953Z,0.00
2024-01-20T00:03:48.970Z,0.00
2024-01-20T00:04:49.134Z,0.00
2024-01-20T00:05:50.008Z,0.00
2024-01-20T00:06:49.059Z,0.00
2024-01-20T00:07:50.084Z,0.00
2024-01-20T00:08:49.072Z,0.00
2024-01-20T00:09:51.238Z,0.00
2024-01-20T00:10:50.176Z,0.00
2024-01-20T00:11:49.144Z,0.00
2024-01-20T00:12:50.170Z,0.00
2024-01-20T00:13:49.299Z,0.00
2024-01-20T00:14:49.225Z,0.00
2024-01-20T00:15:50.263Z,0.00
2024-01-20T00:16:49.361Z,0.00
2024-01-20T00:17:50.425Z,0.00
2024-01-20T00:18:49.406Z,0.00
2024-01-20T00:19:50.002Z,0.00
2024-01-20T00:20:50.387Z,0.00
2024-01-20T00:21:49.373Z,0.00
2024-01-20T00:22:50.417Z,0.00
2024-01-20T00:23:49.459Z,0.00
2024-01-20T00:24:49.483Z,0.00
2024-01-20T00:25:50.527Z,0.00
2024-01-20T00:26:49.513Z,0.00
2024-01-20T00:27:50.534Z,0.00
2024-01-20T00:28:49.577Z,0.00
2024-01-20T00:29:49.564Z,0.00
2024-01-20T00:30:50.595Z,0.00
2024-01-20T00:31:49.661Z,0.00
2024-01-20T00:32:50.728Z,0.00
2024-01-20T00:33:49.777Z,0.00
2024-01-20T00:34:59.760Z,0.00
2024-01-20T00:35:50.792Z,0.00
2024-01-20T00:36:49.724Z,0.00
2024-01-20T00:37:50.815Z,0.00
2024-01-20T00:38:49.793Z,0.00
2024-01-20T00:39:49.797Z,0.00
2024-01-20T00:40:50.852Z,0.00
2024-01-20T00:41:49.850Z,0.00
2024-01-20T00:42:50.871Z,0.00
2024-01-20T00:43:49.939Z,0.00
2024-01-20T00:44:49.908Z,0.00
2024-01-20T00:45:50.973Z,0.00
2024-01-20T00:46:50.017Z,4.00
2024-01-20T00:47:51.024Z,4.00
2024-01-20T00:48:50.052Z,0.00
2024-01-20T00:49:50.070Z,0.00
2024-01-20T00:50:51.072Z,4.00
2024-01-20T00:51:50.077Z,0.00
2024-01-20T00:52:51.159Z,0.00
2024-01-20T00:53:50.120Z,0.00
2024-01-20T00:54:50.155Z,0.00
2024-01-20T00:55:51.284Z,0.00
2024-01-20T00:56:50.239Z,0.00
2024-01-20T00:57:51.247Z,0.00
2024-01-20T00:58:50.286Z,0.00
2024-01-20T00:59:50.263Z,0.00
2024-01-20T01:00:51.325Z,0.00
2024-01-20T01:01:50.379Z,0.00
2024-01-20T01:02:51.394Z,0.00
2024-01-20T01:03:50.412Z,0.00
2024-01-20T01:04:50.406Z,0.00
2024-01-20T01:05:51.453Z,0.00
2024-01-20T01:06:50.434Z,0.00
2024-01-20T01:07:51.557Z,0.00
2024-01-20T01:08:50.484Z,0.00
2024-01-20T01:09:50.509Z,0.00
2024-01-20T01:10:51.613Z,0.00
2024-01-20T01:11:50.541Z,0.00
2024-01-20T01:12:51.613Z,0.00
2024-01-20T01:13:50.654Z,0.00
2024-01-20T01:14:50.635Z,0.00
2024-01-20T01:15:53.211Z,0.00
2024-01-20T01:16:50.725Z,0.00
2024-01-20T01:17:51.795Z,0.00
2024-01-20T01:18:50.729Z,0.00
2024-01-20T01:19:50.751Z,0.00
2024-01-20T01:20:51.769Z,0.00
2024-01-20T01:21:50.793Z,0.00
2024-01-20T01:22:51.959Z,0.00
2024-01-20T01:23:50.868Z,0.00
2024-01-20T01:24:50.919Z,0.00
2024-01-20T01:25:51.920Z,0.00
2024-01-20T01:26:50.953Z,0.00
2024-01-20T01:27:51.934Z,0.00
2024-01-20T01:28:50.959Z,0.00
2024-01-20T01:29:51.010Z,0.00
2024-01-20T01:30:52.057Z,0.00
2024-01-20T01:31:51.036Z,0.00
2024-01-20T01:32:52.073Z,0.00
2024-01-20T01:33:51.116Z,0.00
2024-01-20T01:34:51.135Z,0.00
2024-01-20T01:35:52.114Z,0.00
2024-01-20T01:36:51.135Z,0.00
2024-01-20T01:37:52.179Z,0.00
2024-01-20T01:38:51.180Z,0.00
2024-01-20T01:39:51.187Z,0.00
2024-01-20T01:40:52.261Z,0.00
2024-01-20T01:41:51.275Z,0.00
2024-01-20T01:42:52.288Z,0.00
2024-01-20T01:43:51.335Z,0.00
2024-01-20T01:44:51.326Z,0.00
2024-01-20T01:45:52.425Z,0.00
2024-01-20T01:46:51.455Z,0.00
2024-01-20T01:47:52.451Z,0.00
2024-01-20T01:48:51.493Z,0.00
2024-01-20T01:49:51.488Z,0.00
2024-01-20T01:50:52.484Z,0.00
2024-01-20T01:51:51.481Z,0.00
2024-01-20T01:52:52.523Z,0.00
2024-01-20T01:53:51.573Z,0.00
2024-01-20T01:54:51.578Z,0.00
2024-01-20T01:55:52.583Z,0.00
2024-01-20T01:56:51.689Z,0.00
2024-01-20T01:57:52.618Z,0.00
2024-01-20T01:58:51.736Z,0.00
2024-01-20T01:59:51.679Z,0.00
2024-01-20T02:00:52.740Z,0.00
2024-01-20T02:01:51.729Z,0.00
2024-01-20T02:02:52.778Z,0.00
2024-01-20T02:03:51.951Z,0.00
2024-01-20T02:04:51.775Z,0.00
2024-01-20T02:05:52.938Z,0.00
2024-01-20T02:06:51.978Z,0.00
2024-01-20T02:07:52.862Z,0.00
2024-01-20T02:08:51.927Z,0.00
2024-01-20T02:09:51.907Z,0.00
2024-01-20T02:10:52.951Z,0.00
2024-01-20T02:11:52.017Z,0.00
2024-01-20T02:12:52.970Z,0.00
2024-01-20T02:13:51.977Z,0.00
2024-01-20T02:14:52.050Z,0.00
2024-01-20T02:15:53.045Z,0.00
2024-01-20T02:16:52.091Z,0.00
2024-01-20T02:17:53.224Z,0.00
2024-01-20T02:18:52.167Z,0.00
2024-01-20T02:19:52.130Z,0.00
2024-01-20T02:20:53.157Z,0.00
2024-01-20T02:21:52.169Z,0.00
2024-01-20T02:22:53.217Z,0.00
2024-01-20T02:23:52.256Z,0.00
2024-01-20T02:24:52.248Z,0.00
2024-01-20T02:25:53.263Z,0.00
2024-01-20T02:26:52.305Z,0.00
2024-01-20T02:27:53.313Z,0.00
2024-01-20T02:28:52.339Z,0.00
2024-01-20T02:29:52.335Z,0.00
2024-01-20T02:30:53.375Z,0.00
2024-01-20T02:31:52.372Z,0.00
2024-01-20T02:32:53.548Z,0.00
2024-01-20T02:33:52.610Z,0.00
2024-01-20T02:34:52.423Z,0.00
2024-01-20T02:35:53.485Z,0.00
2024-01-20T02:36:52.488Z,0.00
2024-01-20T02:37:53.516Z,0.00
2024-01-20T02:38:52.634Z,0.00
2024-01-20T02:39:52.550Z,0.00
2024-01-20T02:40:53.583Z,0.00
2024-01-20T02:41:52.594Z,0.00
2024-01-20T02:42:53.618Z,0.00
2024-01-20T02:43:52.662Z,0.00
2024-01-20T02:44:52.803Z,0.00
2024-01-20T02:45:53.690Z,0.00
2024-01-20T02:46:52.701Z,0.00
2024-01-20T02:47:53.882Z,0.00
2024-01-20T02:48:52.828Z,0.00
2024-01-20T02:49:52.859Z,0.00
2024-01-20T02:50:53.847Z,0.00
2024-01-20T02:51:52.840Z,0.00
2024-01-20T02:52:53.870Z,0.00
2024-01-20T02:53:52.888Z,0.00
2024-01-20T02:54:52.890Z,0.00
2024-01-20T02:55:53.932Z,0.00
2024-01-20T02:56:52.979Z,0.00
2024-01-20T02:57:53.967Z,0.00
2024-01-20T02:58:52.985Z,0.00
2024-01-20T02:59:53.049Z,0.00
2024-01-20T03:00:54.070Z,0.00
2024-01-20T03:01:53.053Z,0.00
2024-01-20T03:02:54.179Z,0.00
2024-01-20T03:03:53.159Z,0.00
2024-01-20T03:04:53.232Z,0.00
2024-01-20T03:05:54.238Z,0.00
2024-01-20T03:06:53.181Z,0.00
2024-01-20T03:07:54.227Z,0.00
2024-01-20T03:08:53.252Z,0.00
2024-01-20T03:09:53.250Z,0.00
2024-01-20T03:10:54.280Z,0.00
2024-01-20T03:11:53.347Z,0.00
2024-01-20T03:12:54.317Z,0.00
2024-01-20T03:13:53.340Z,0.00
2024-01-20T03:14:53.410Z,0.00
2024-01-20T03:15:54.409Z,0.00
2024-01-20T03:16:53.417Z,0.00
2024-01-20T03:17:54.516Z,0.00
2024-01-20T03:18:53.489Z,0.00
2024-01-20T03:19:53.525Z,0.00
2024-01-20T03:20:54.551Z,0.00
2024-01-20T03:21:53.533Z,0.00
2024-01-20T03:22:54.565Z,0.00
2024-01-20T03:23:53.610Z,0.00
2024-01-20T03:24:53.633Z,0.00
2024-01-20T03:25:54.635Z,0.00
2024-01-20T03:26:55.035Z,0.00
2024-01-20T03:27:54.701Z,0.00
2024-01-20T03:28:53.694Z,0.00
2024-01-20T03:29:53.753Z,0.00
2024-01-20T03:30:54.751Z,0.00
2024-01-20T03:31:53.767Z,0.00
2024-01-20T03:32:54.902Z,0.00
2024-01-20T03:33:53.890Z,0.00
2024-01-20T03:34:53.832Z,0.00
2024-01-20T03:35:54.893Z,0.00
2024-01-20T03:36:53.885Z,0.00
2024-01-20T03:37:54.915Z,0.00
2024-01-20T03:38:53.937Z,0.00
2024-01-20T03:39:53.941Z,0.00
2024-01-20T03:40:54.978Z,0.00
2024-01-20T03:41:54.019Z,0.00
2024-01-20T03:42:55.024Z,0.00
2024-01-20T03:43:54.038Z,0.00
2024-01-20T03:44:54.062Z,0.00
2024-01-20T03:45:55.100Z,0.00
2024-01-20T03:46:54.106Z,0.00
2024-01-20T03:47:55.282Z,0.00
2024-01-20T03:48:54.377Z,0.00
2024-01-20T03:49:54.299Z,0.00
2024-01-20T03:50:55.244Z,0.00
2024-01-20T03:51:54.225Z,0.00
2024-01-20T03:52:55.261Z,0.00
2024-01-20T03:53:54.305Z,0.00
2024-01-20T03:54:54.293Z,0.00
2024-01-20T03:55:55.338Z,0.00
2024-01-20T03:56:54.377Z,0.00
2024-01-20T03:57:55.382Z,0.00
2024-01-20T03:58:54.410Z,0.00
2024-01-20T03:59:54.459Z,0.00
2024-01-20T04:00:55.462Z,0.00
2024-01-20T04:01:54.466Z,0.00
2024-01-20T04:02:55.499Z,0.00
2024-01-20T04:03:54.581Z,0.00
2024-01-20T04:04:54.530Z,0.00
2024-01-20T04:05:55.624Z,0.00
2024-01-20T04:06:54.564Z,0.00
2024-01-20T04:07:55.618Z,0.00
2024-01-20T04:08:54.635Z,0.00
2024-01-20T04:09:54.663Z,0.00
2024-01-20T04:10:55.679Z,0.00
2024-01-20T04:11:54.707Z,0.00
2024-01-20T04:12:55.736Z,0.00
2024-01-20T04:13:54.733Z,0.00
2024-01-20T04:14:54.768Z,0.00
2024-01-20T04:15:55.798Z,0.00
2024-01-20T04:16:54.814Z,0.00
2024-01-20T04:17:55.990Z,0.00
2024-01-20T04:18:54.932Z,0.00
2024-01-20T04:19:55.843Z,0.00
2024-01-20T04:20:55.929Z,0.00
2024-01-20T04:21:54.942Z,0.00
2024-01-20T04:22:55.963Z,0.00
2024-01-20T04:23:54.980Z,0.00
2024-01-20T04:24:55.000Z,0.00
2024-01-20T04:25:56.028Z,0.00
2024-01-20T04:26:55.048Z,0.00
2024-01-20T04:27:56.074Z,0.00
2024-01-20T04:28:55.089Z,0.00
2024-01-20T04:29:55.137Z,0.00
2024-01-20T04:30:56.140Z,0.00
2024-01-20T04:31:55.232Z,0.00
2024-01-20T04:32:56.329Z,0.00
2024-01-20T04:33:55.266Z,0.00
2024-01-20T04:34:55.229Z,0.00
2024-01-20T04:35:56.301Z,0.00
2024-01-20T04:36:55.281Z,0.00
2024-01-20T04:37:56.312Z,0.00
2024-01-20T04:38:55.343Z,0.00
2024-01-20T04:39:55.345Z,0.00
2024-01-20T04:40:56.381Z,0.00
2024-01-20T04:41:55.429Z,0.00
2024-01-20T04:42:56.480Z,0.00
2024-01-20T04:43:55.441Z,0.00
2024-01-20T04:44:55.517Z,0.00
2024-01-20T04:45:56.541Z,0.00
2024-01-20T04:46:55.497Z,0.00
2024-01-20T04:47:56.723Z,0.00
2024-01-20T04:48:55.735Z,0.00
2024-01-20T04:49:55.609Z,0.00
2024-01-20T04:50:56.648Z,0.00
2024-01-20T04:51:55.642Z,0.00
2024-01-20T04:52:56.686Z,0.00
2024-01-20T04:53:55.690Z,0.00
2024-01-20T04:54:55.689Z,0.00
2024-01-20T04:55:56.750Z,0.00
2024-01-20T04:56:55.810Z,0.00
2024-01-20T04:57:56.773Z,0.00
2024-01-20T04:58:55.784Z,0.00
2024-01-20T04:59:55.823Z,0.00
2024-01-20T05:00:56.874Z,0.00
2024-01-20T05:01:55.860Z,0.00
2024-01-20T05:02:56.902Z,0.00
2024-01-20T05:03:55.980Z,0.00
2024-01-20T05:04:55.913Z,0.00
2024-01-20T05:05:57.015Z,0.00
2024-01-20T05:06:56.033Z,0.00
2024-01-20T05:07:56.996Z,0.00
2024-01-20T05:08:56.060Z,0.00
2024-01-20T05:09:56.030Z,0.00
2024-01-20T05:10:57.072Z,0.00
2024-01-20T05:11:56.156Z,0.00
2024-01-20T05:12:57.141Z,0.00
2024-01-20T05:13:56.118Z,0.00
2024-01-20T05:14:56.168Z,0.00
2024-01-20T05:15:57.188Z,0.00
2024-01-20T05:16:56.215Z,0.00
2024-01-20T05:17:57.389Z,0.00
2024-01-20T05:18:56.390Z,0.00
2024-01-20T05:19:56.387Z,0.00
2024-01-20T05:20:57.357Z,0.00
2024-01-20T05:21:56.323Z,0.00
2024-01-20T05:22:57.354Z,0.00
2024-01-20T05:23:56.367Z,0.00
2024-01-20T05:24:56.393Z,0.00
2024-01-20T05:25:57.418Z,0.00
2024-01-20T05:26:56.511Z,0.00
2024-01-20T05:27:57.472Z,0.00
2024-01-20T05:28:56.475Z,0.00
2024-01-20T05:29:56.503Z,0.00
2024-01-20T05:30:57.543Z,0.00
2024-01-20T05:31:56.558Z,0.00
2024-01-20T05:32:57.652Z,0.00
2024-01-20T05:33:56.706Z,0.00
2024-01-20T05:34:56.640Z,0.00
2024-01-20T05:35:57.696Z,0.00
2024-01-20T05:36:56.680Z,0.00
2024-01-20T05:37:57.689Z,0.00
2024-01-20T05:38:56.724Z,0.00
2024-01-20T05:39:56.736Z,0.00
2024-01-20T05:40:57.768Z,0.00
2024-01-20T05:41:56.846Z,0.00
2024-01-20T05:42:57.836Z,0.00
2024-01-20T05:43:56.823Z,0.00
2024-01-20T05:44:56.882Z,0.00
2024-01-20T05:45:57.905Z,0.00
2024-01-20T05:46:56.931Z,0.00
2024-01-20T05:47:57.977Z,0.00
2024-01-20T05:48:57.176Z,0.00
2024-01-20T05:49:57.057Z,0.00
2024-01-20T05:50:58.211Z,0.00
2024-01-20T05:51:57.021Z,0.00
2024-01-20T05:52:58.062Z,0.00
2024-01-20T05:53:57.115Z,0.00
2024-01-20T05:54:57.100Z,0.00
2024-01-20T05:55:58.144Z,0.00
2024-01-20T05:56:57.188Z,0.00
2024-01-20T05:57:58.174Z,0.00
2024-01-20T05:58:57.184Z,0.00
2024-01-20T05:59:57.251Z,0.00
2024-01-20T06:00:58.343Z,0.00
2024-01-20T06:01:57.251Z,0.00
2024-01-20T06:02:58.432Z,0.00
2024-01-20T06:03:57.387Z,0.00
2024-01-20T06:04:57.392Z,0.00
2024-01-20T06:05:58.395Z,0.00
2024-01-20T06:06:57.377Z,0.00
2024-01-20T06:07:58.407Z,0.00
2024-01-20T06:08:57.469Z,0.00
2024-01-20T06:09:57.445Z,0.00
2024-01-20T06:10:58.492Z,0.00
2024-01-20T06:11:57.515Z,0.00
2024-01-20T06:12:58.541Z,0.00
2024-01-20T06:13:57.550Z,0.00
2024-01-20T06:14:57.698Z,0.00
2024-01-20T06:15:58.607Z,0.00
2024-01-20T06:16:57.628Z,0.00
2024-01-20T06:17:58.703Z,0.00
2024-01-20T06:18:57.738Z,0.00
2024-01-20T06:19:57.740Z,0.00
2024-01-20T06:20:58.797Z,0.00
2024-01-20T06:21:57.792Z,0.00
2024-01-20T06:22:58.758Z,0.00
2024-01-20T06:23:57.840Z,0.00
2024-01-20T06:24:58.018Z,0.00
2024-01-20T06:25:58.836Z,0.00
2024-01-20T06:26:57.871Z,0.00
2024-01-20T06:27:58.877Z,0.00
2024-01-20T06:28:57.905Z,0.00
2024-01-20T06:29:57.931Z,0.00
2024-01-20T06:30:58.968Z,0.00
2024-01-20T06:31:58.030Z,0.00
2024-01-20T06:32:59.105Z,0.00
2024-01-20T06:33:58.093Z,0.00
2024-01-20T06:34:58.038Z,0.00
2024-01-20T06:35:59.123Z,0.00
2024-01-20T06:36:58.149Z,0.00
2024-01-20T06:37:59.107Z,0.00
2024-01-20T06:38:58.132Z,4.00
2024-01-20T06:39:58.158Z,0.00
2024-01-20T06:40:59.186Z,0.00
2024-01-20T06:41:58.219Z,0.00
2024-01-20T06:42:59.258Z,0.00
2024-01-20T06:43:58.257Z,4.00
2024-01-20T06:45:00.170Z,4.00
2024-01-20T06:45:59.300Z,0.00
2024-01-20T06:46:58.361Z,4.00
2024-01-20T06:47:59.471Z,4.00
2024-01-20T06:48:58.504Z,4.00
2024-01-20T06:49:58.373Z,4.00
2024-01-20T06:50:59.469Z,4.00
2024-01-20T06:51:58.418Z,4.00
2024-01-20T06:52:59.474Z,4.00
2024-01-20T06:53:58.916Z,4.00
2024-01-20T06:54:58.502Z,8.00
2024-01-20T06:55:59.535Z,4.00
2024-01-20T06:56:58.588Z,8.00
2024-01-20T06:57:59.571Z,12.00
2024-01-20T06:58:58.588Z,8.00
2024-01-20T06:59:58.619Z,12.00
2024-01-20T07:00:59.707Z,12.00
2024-01-20T07:01:58.650Z,12.00
2024-01-20T07:02:59.739Z,16.00
2024-01-20T07:03:58.861Z,16.00
2024-01-20T07:04:58.730Z,20.00
2024-01-20T07:05:59.825Z,20.00
2024-01-20T07:06:58.775Z,24.00
2024-01-20T07:07:59.803Z,24.00
2024-01-20T07:08:58.848Z,28.00
2024-01-20T07:09:58.838Z,28.00
2024-01-20T07:10:59.881Z,28.00
2024-01-20T07:11:59.172Z,32.00
2024-01-20T07:12:59.945Z,32.00
2024-01-20T07:13:58.933Z,36.00
2024-01-20T07:14:59.028Z,36.00
2024-01-20T07:16:00.002Z,36.00
2024-01-20T07:16:59.012Z,36.00
2024-01-20T07:18:00.104Z,36.00
2024-01-20T07:18:59.152Z,32.00
2024-01-20T07:19:59.071Z,32.00
2024-01-20T07:21:00.150Z,28.00
2024-01-20T07:21:59.123Z,28.00
2024-01-20T07:23:00.178Z,28.00
2024-01-20T07:23:59.209Z,24.00
2024-01-20T07:24:59.210Z,28.00
2024-01-20T07:26:00.226Z,24.00
2024-01-20T07:26:59.341Z,24.00
2024-01-20T07:28:00.276Z,20.00
2024-01-20T07:29:00.517Z,20.00
2024-01-20T07:29:59.351Z,20.00
2024-01-20T07:31:00.345Z,24.00
2024-01-20T07:31:59.355Z,24.00
2024-01-20T07:33:00.636Z,24.00
2024-01-20T07:33:59.581Z,28.00
2024-01-20T07:34:59.467Z,28.00
2024-01-20T07:36:00.501Z,28.00
2024-01-20T07:36:59.476Z,32.00
2024-01-20T07:38:00.509Z,32.00
2024-01-20T07:38:59.607Z,32.00
2024-01-20T07:39:59.589Z,32.00
2024-01-20T07:41:00.584Z,36.00
2024-01-20T07:41:59.648Z,36.00
2024-01-20T07:43:00.683Z,40.00
2024-01-20T07:43:59.653Z,44.00
2024-01-20T07:44:59.681Z,48.00
2024-01-20T07:46:00.715Z,44.00
2024-01-20T07:46:59.733Z,44.00
2024-01-20T07:48:00.824Z,48.00
2024-01-20T07:48:59.835Z,48.00
2024-01-20T07:49:59.789Z,48.00
2024-01-20T07:51:00.880Z,52.00
2024-01-20T07:51:59.829Z,52.00
2024-01-20T07:53:00.864Z,56.00
2024-01-20T07:53:59.948Z,64.00
2024-01-20T07:54:59.913Z,64.00
2024-01-20T07:56:00.940Z,60.00
2024-01-20T07:56:59.987Z,56.00
2024-01-20T07:58:01.006Z,60.00
2024-01-20T07:59:00.001Z,56.00
2024-01-20T08:00:00.121Z,52.00
2024-01-20T08:01:01.092Z,52.00
2024-01-20T08:02:00.072Z,52.00
2024-01-20T08:03:01.141Z,52.00
2024-01-20T08:04:00.157Z,56.00
2024-01-20T08:05:00.187Z,52.00
2024-01-20T08:06:01.282Z,56.00
2024-01-20T08:07:00.292Z,52.00
2024-01-20T08:08:01.228Z,52.00
2024-01-20T08:09:00.377Z,48.00
2024-01-20T08:10:00.328Z,52.00
2024-01-20T08:11:01.305Z,56.00
2024-01-20T08:12:00.371Z,60.00
2024-01-20T08:13:01.373Z,60.00
2024-01-20T08:14:00.354Z,64.00
2024-01-20T08:15:00.442Z,68.00
2024-01-20T08:16:01.415Z,72.00
2024-01-20T08:17:00.450Z,76.00
2024-01-20T08:18:01.529Z,80.00
2024-01-20T08:19:00.616Z,80.00
2024-01-20T08:20:00.660Z,84.00
2024-01-20T08:21:01.554Z,84.00
2024-01-20T08:22:00.572Z,84.00
2024-01-20T08:23:01.588Z,88.00
2024-01-20T08:24:00.653Z,96.00
2024-01-20T08:25:00.666Z,108.00
2024-01-20T08:26:01.642Z,112.00
2024-01-20T08:27:00.706Z,112.00
2024-01-20T08:28:01.695Z,116.00
2024-01-20T08:29:00.738Z,112.00
2024-01-20T08:30:00.857Z,120.00
2024-01-20T08:31:01.858Z,128.00
2024-01-20T08:32:00.844Z,140.00
2024-01-20T08:33:04.350Z,144.00
2024-01-20T08:34:00.950Z,144.00
2024-01-20T08:35:00.863Z,144.00
2024-01-20T08:36:01.911Z,140.00
2024-01-20T08:37:00.902Z,136.00
2024-01-20T08:38:01.926Z,140.00
2024-01-20T08:39:00.965Z,140.00
2024-01-20T08:40:00.972Z,152.00
2024-01-20T08:41:02.057Z,164.00
2024-01-20T08:42:01.071Z,164.00
2024-01-20T08:43:02.064Z,168.00
2024-01-20T08:44:01.063Z,156.00
2024-01-20T08:45:01.305Z,144.00
2024-01-20T08:46:02.126Z,128.00
2024-01-20T08:47:01.142Z,116.00
2024-01-20T08:48:02.226Z,108.00
2024-01-20T08:49:01.220Z,104.00
2024-01-20T08:50:01.215Z,100.00
2024-01-20T08:51:02.293Z,100.00
2024-01-20T08:52:01.260Z,108.00
2024-01-20T08:53:02.353Z,108.00
2024-01-20T08:54:01.328Z,116.00
2024-01-20T08:55:01.335Z,128.00
2024-01-20T08:56:02.375Z,140.00
2024-01-20T08:57:01.434Z,144.00
2024-01-20T08:58:02.429Z,148.00
2024-01-20T08:59:01.440Z,144.00
2024-01-20T09:00:01.494Z,144.00
2024-01-20T09:01:02.582Z,152.00
2024-01-20T09:02:01.489Z,172.00
2024-01-20T09:03:02.759Z,176.00
2024-01-20T09:04:01.544Z,172.00
2024-01-20T09:05:01.574Z,180.00
2024-01-20T09:06:02.732Z,184.00
2024-01-20T09:07:01.735Z,180.00
2024-01-20T09:08:02.657Z,180.00
2024-01-20T09:09:01.702Z,184.00
2024-01-20T09:10:01.697Z,176.00
2024-01-20T09:11:02.717Z,164.00
2024-01-20T09:12:01.765Z,168.00
2024-01-20T09:13:02.772Z,176.00
2024-01-20T09:14:02.145Z,184.00
2024-01-20T09:15:01.948Z,184.00
2024-01-20T09:16:02.962Z,184.00
2024-01-20T09:17:01.857Z,180.00
2024-01-20T09:18:02.978Z,176.00
2024-01-20T09:19:02.140Z,172.00
2024-01-20T09:20:02.203Z,172.00
2024-01-20T09:21:02.979Z,172.00
2024-01-20T09:22:01.958Z,180.00
2024-01-20T09:23:03.050Z,176.00
2024-01-20T09:24:03.029Z,180.00
2024-01-20T09:25:02.028Z,180.00
2024-01-20T09:26:03.070Z,176.00
2024-01-20T09:27:02.143Z,176.00
2024-01-20T09:28:03.121Z,176.00
2024-01-20T09:29:02.122Z,172.00
2024-01-20T09:30:02.231Z,172.00
2024-01-20T09:31:03.179Z,184.00
2024-01-20T09:32:02.204Z,192.00
2024-01-20T09:33:03.336Z,184.00
2024-01-20T09:34:02.392Z,172.00
2024-01-20T09:35:02.257Z,172.00
2024-01-20T09:36:03.342Z,180.00
2024-01-20T09:37:02.337Z,180.00
2024-01-20T09:38:03.363Z,176.00
2024-01-20T09:39:02.448Z,180.00
2024-01-20T09:40:02.427Z,184.00
2024-01-20T09:41:03.410Z,204.00
2024-01-20T09:42:02.485Z,216.00
2024-01-20T09:43:03.455Z,208.00
2024-01-20T09:44:02.492Z,216.00
2024-01-20T09:45:02.600Z,252.00
2024-01-20T09:46:03.537Z,296.00
2024-01-20T09:47:02.576Z,340.00
2024-01-20T09:48:03.704Z,356.00
2024-01-20T09:49:02.846Z,348.00
2024-01-20T09:50:02.628Z,384.00
2024-01-20T09:51:03.656Z,436.00
2024-01-20T09:52:02.670Z,440.00
2024-01-20T09:53:03.694Z,400.00
2024-01-20T09:54:02.782Z,368.00
2024-01-20T09:55:02.731Z,384.00
2024-01-20T09:56:03.782Z,416.00
2024-01-20T09:57:02.814Z,440.00
2024-01-20T09:58:03.816Z,504.00
2024-01-20T09:59:02.844Z,588.00
2024-01-20T10:00:03.008Z,648.00
2024-01-20T10:01:04.089Z,760.00
2024-01-20T10:02:02.907Z,1252.00
2024-01-20T10:03:03.968Z,640.00
2024-01-20T10:04:03.113Z,536.00
2024-01-20T10:05:03.052Z,468.00
2024-01-20T10:06:04.056Z,492.00
2024-01-20T10:07:03.042Z,548.00
2024-01-20T10:08:04.070Z,628.00
2024-01-20T10:09:03.110Z,720.00
2024-01-20T10:10:03.178Z,944.00
2024-01-20T10:11:04.138Z,1064.00
2024-01-20T10:12:03.185Z,2108.00
2024-01-20T10:13:04.279Z,1564.00
2024-01-20T10:14:03.217Z,1456.00
2024-01-20T10:15:03.303Z,2692.00
2024-01-20T10:16:04.257Z,1148.00
2024-01-20T10:17:03.266Z,1144.00
2024-01-20T10:18:04.450Z,1420.00
2024-01-20T10:19:03.348Z,3056.00
2024-01-20T10:20:03.503Z,1320.00
2024-01-20T10:21:04.403Z,1332.00
2024-01-20T10:22:03.397Z,1172.00
2024-01-20T10:23:04.438Z,1128.00
2024-01-20T10:24:03.486Z,1112.00
2024-01-20T10:25:03.464Z,1128.00
2024-01-20T10:26:04.506Z,1268.00
2024-01-20T10:27:03.532Z,3708.00
2024-01-20T10:28:04.562Z,1824.00
2024-01-20T10:29:03.598Z,1268.00
2024-01-20T10:30:03.712Z,1456.00
2024-01-20T10:31:04.646Z,2664.00
2024-01-20T10:32:03.729Z,1840.00
2024-01-20T10:33:09.796Z,1356.00
2024-01-20T10:34:04.037Z,2968.00
2024-01-20T10:35:04.137Z,2616.00
2024-01-20T10:36:04.953Z,1408.00
2024-01-20T10:37:03.788Z,1064.00
2024-01-20T10:38:04.847Z,1008.00
2024-01-20T10:39:04.050Z,860.00
2024-01-20T10:40:03.888Z,1928.00
2024-01-20T10:41:04.912Z,1576.00
2024-01-20T10:42:03.970Z,3676.00
2024-01-20T10:43:04.964Z,3996.00
2024-01-20T10:44:04.087Z,1336.00
2024-01-20T10:45:04.046Z,1388.00
2024-01-20T10:46:05.043Z,3960.00
2024-01-20T10:47:04.054Z,2340.00
2024-01-20T10:48:06.182Z,1288.00
2024-01-20T10:49:04.220Z,1608.00
2024-01-20T10:50:04.136Z,2160.00
2024-01-20T10:51:05.239Z,1428.00
2024-01-20T10:52:04.282Z,1324.00
2024-01-20T10:53:05.220Z,4312.00
2024-01-20T10:54:04.821Z,2296.00
2024-01-20T10:55:04.276Z,1028.00
2024-01-20T10:56:05.305Z,1008.00
2024-01-20T10:57:04.333Z,900.00
2024-01-20T10:58:05.363Z,816.00
2024-01-20T10:59:04.368Z,928.00
2024-01-20T11:00:04.497Z,844.00
2024-01-20T11:01:05.456Z,708.00
2024-01-20T11:02:04.462Z,672.00
2024-01-20T11:03:05.522Z,616.00
2024-01-20T11:04:04.712Z,628.00
2024-01-20T11:05:04.533Z,688.00
2024-01-20T11:06:05.673Z,632.00
2024-01-20T11:07:04.653Z,524.00
2024-01-20T11:08:05.635Z,532.00
2024-01-20T11:09:04.679Z,592.00
2024-01-20T11:10:04.689Z,744.00
2024-01-20T11:11:05.791Z,744.00
2024-01-20T11:12:04.909Z,636.00
2024-01-20T11:13:05.778Z,632.00
2024-01-20T11:14:04.789Z,756.00
2024-01-20T11:15:04.901Z,808.00
2024-01-20T11:16:05.858Z,796.00
2024-01-20T11:17:04.882Z,756.00
2024-01-20T11:18:05.942Z,868.00
2024-01-20T11:19:05.063Z,944.00
2024-01-20T11:20:04.954Z,824.00
2024-01-20T11:21:06.044Z,960.00
2024-01-20T11:22:05.008Z,1432.00
2024-01-20T11:23:06.023Z,4104.00
2024-01-20T11:24:05.087Z,1288.00
2024-01-20T11:25:05.075Z,1392.00
2024-01-20T11:26:06.111Z,1020.00
2024-01-20T11:27:05.251Z,1172.00
2024-01-20T11:28:06.171Z,1480.00
2024-01-20T11:29:05.182Z,1572.00
2024-01-20T11:30:05.240Z,2368.00
2024-01-20T11:31:06.244Z,7048.00
2024-01-20T11:32:05.267Z,7280.00
2024-01-20T11:33:06.450Z,6848.00
2024-01-20T11:34:05.492Z,6808.00
2024-01-20T11:35:05.328Z,6476.00
2024-01-20T11:36:06.416Z,7756.00
2024-01-20T11:37:05.453Z,7376.00
2024-01-20T11:38:06.446Z,6604.00
2024-01-20T11:39:05.464Z,6836.00
2024-01-20T11:40:05.501Z,7348.00
2024-01-20T11:41:06.521Z,6952.00
2024-01-20T11:42:05.590Z,8048.00
2024-01-20T11:43:06.592Z,2392.00
2024-01-20T11:44:05.614Z,7972.00
2024-01-20T11:45:05.675Z,8460.00
2024-01-20T11:46:06.678Z,7424.00
2024-01-20T11:47:05.701Z,8388.00
2024-01-20T11:48:08.223Z,2332.00
2024-01-20T11:49:05.872Z,2536.00
2024-01-20T11:50:05.862Z,8952.00
2024-01-20T11:51:06.897Z,9540.00
2024-01-20T11:52:05.860Z,8920.00
2024-01-20T11:53:06.915Z,8220.00
2024-01-20T11:54:05.964Z,9208.00
2024-01-20T11:55:06.001Z,9216.00
2024-01-20T11:56:07.005Z,10192.00
2024-01-20T11:57:06.076Z,9888.00
2024-01-20T11:58:07.065Z,9772.00
2024-01-20T11:59:06.086Z,9548.00
2024-01-20T12:00:06.357Z,10852.00
2024-01-20T12:01:07.255Z,10564.00
2024-01-20T12:02:06.213Z,11036.00
2024-01-20T12:03:07.350Z,11392.00
2024-01-20T12:04:06.256Z,10888.00
2024-01-20T12:05:12.095Z,10864.00
2024-01-20T12:06:09.701Z,11080.00
2024-01-20T12:07:06.401Z,11904.00
2024-01-20T12:08:07.438Z,11376.00
2024-01-20T12:09:06.493Z,12480.00
2024-01-20T12:10:06.472Z,13120.00
2024-01-20T12:11:07.526Z,12640.00
2024-01-20T12:12:06.568Z,12544.00
2024-01-20T12:13:07.588Z,13280.00
2024-01-20T12:14:06.629Z,14016.00
2024-01-20T12:15:06.695Z,13632.00
2024-01-20T12:16:07.704Z,14816.00
2024-01-20T12:17:06.738Z,14368.00
2024-01-20T12:18:07.967Z,14560.00
2024-01-20T12:19:06.882Z,14048.00
2024-01-20T12:20:06.848Z,15008.00
2024-01-20T12:21:07.939Z,14592.00
2024-01-20T12:22:06.911Z,14304.00
2024-01-20T12:23:07.979Z,14912.00
2024-01-20T12:24:07.020Z,15008.00
2024-01-20T12:25:07.029Z,14816.00
2024-01-20T12:26:08.086Z,15136.00
2024-01-20T12:27:07.196Z,16064.00
2024-01-20T12:28:08.157Z,16224.00
2024-01-20T12:29:07.178Z,16064.00
2024-01-20T12:30:07.264Z,15840.00
2024-01-20T12:31:08.266Z,16640.00
2024-01-20T12:32:07.295Z,17216.00
2024-01-20T12:33:08.409Z,16832.00
2024-01-20T12:34:07.449Z,16864.00
2024-01-20T12:35:07.413Z,17632.00
2024-01-20T12:36:08.531Z,18976.00
2024-01-20T12:37:08.904Z,18656.00
2024-01-20T12:38:08.541Z,21024.00
2024-01-20T12:39:07.573Z,15456.00
2024-01-20T12:40:07.600Z,7116.00
2024-01-20T12:41:08.666Z,10340.00
2024-01-20T12:42:07.733Z,19296.00
2024-01-20T12:43:08.727Z,21760.00
2024-01-20T12:44:07.768Z,21792.00
2024-01-20T12:45:07.834Z,20352.00
2024-01-20T12:46:08.864Z,7132.00
2024-01-20T12:47:07.897Z,4516.00
2024-01-20T12:48:09.001Z,3680.00
2024-01-20T12:49:08.015Z,4584.00
2024-01-20T12:50:08.050Z,2448.00
2024-01-20T12:51:09.086Z,3680.00
2024-01-20T12:52:08.100Z,8384.00